sensor_id;sensor_type;location;lat;lon;timestamp;temperature;humidity
59881;DHT22;45751;51.380;10.326;2023-04-08T00:01:44;8.30;52.50
59881;DHT22;45751;51.380;10.326;2023-04-08T00:04:11;8.30;52.80
59881;DHT22;45751;51.380;10.326;2023-04-08T00:06:40;8.30;53.20
59881;DHT22;45751;51.380;10.326;2023-04-08T00:09:07;8.30;53.30
59881;DHT22;45751;51.380;10.326;2023-04-08T00:11:34;8.30;53.60
59881;DHT22;45751;51.380;10.326;2023-04-08T00:14:02;8.30;53.90
59881;DHT22;45751;51.380;10.326;2023-04-08T00:16:30;8.30;54.00
59881;DHT22;45751;51.380;10.326;2023-04-08T00:18:58;8.30;54.20
59881;DHT22;45751;51.380;10.326;2023-04-08T00:21:25;8.30;54.50
59881;DHT22;45751;51.380;10.326;2023-04-08T00:23:52;8.30;54.80
59881;DHT22;45751;51.380;10.326;2023-04-08T00:26:19;8.30;55.00
59881;DHT22;45751;51.380;10.326;2023-04-08T00:28:46;8.30;55.20
59881;DHT22;45751;51.380;10.326;2023-04-08T00:31:13;8.30;55.50
59881;DHT22;45751;51.380;10.326;2023-04-08T00:33:41;8.20;55.50
59881;DHT22;45751;51.380;10.326;2023-04-08T00:36:09;8.30;55.80
59881;DHT22;45751;51.380;10.326;2023-04-08T00:38:36;8.30;56.00
59881;DHT22;45751;51.380;10.326;2023-04-08T00:41:03;8.30;56.20
59881;DHT22;45751;51.380;10.326;2023-04-08T00:43:30;8.20;56.20
59881;DHT22;45751;51.380;10.326;2023-04-08T00:45:57;8.30;56.50
59881;DHT22;45751;51.380;10.326;2023-04-08T00:48:24;8.30;56.70
59881;DHT22;45751;51.380;10.326;2023-04-08T00:50:51;8.20;57.10
59881;DHT22;45751;51.380;10.326;2023-04-08T00:53:18;8.20;57.30
59881;DHT22;45751;51.380;10.326;2023-04-08T00:55:45;8.30;57.30
59881;DHT22;45751;51.380;10.326;2023-04-08T00:58:13;8.20;57.30
59881;DHT22;45751;51.380;10.326;2023-04-08T01:00:45;8.10;57.00
59881;DHT22;45751;51.380;10.326;2023-04-08T01:08:37;8.00;57.30
59881;DHT22;45751;51.380;10.326;2023-04-08T01:11:09;8.00;56.60
59881;DHT22;45751;51.380;10.326;2023-04-08T01:13:39;7.80;57.50
59881;DHT22;45751;51.380;10.326;2023-04-08T01:16:13;7.80;58.40
59881;DHT22;45751;51.380;10.326;2023-04-08T01:18:42;7.70;58.20
59881;DHT22;45751;51.380;10.326;2023-04-08T01:21:11;7.60;58.00
59881;DHT22;45751;51.380;10.326;2023-04-08T01:24:00;7.60;58.90
59881;DHT22;45751;51.380;10.326;2023-04-08T01:26:30;7.50;59.10
59881;DHT22;45751;51.380;10.326;2023-04-08T01:28:59;7.50;59.10
59881;DHT22;45751;51.380;10.326;2023-04-08T01:31:27;7.50;59.60
59881;DHT22;45751;51.380;10.326;2023-04-08T01:33:56;7.50;59.80
59881;DHT22;45751;51.380;10.326;2023-04-08T01:36:25;7.50;59.90
59881;DHT22;45751;51.380;10.326;2023-04-08T01:38:52;7.50;60.30
59881;DHT22;45751;51.380;10.326;2023-04-08T01:41:19;7.50;60.60
59881;DHT22;45751;51.380;10.326;2023-04-08T01:43:47;7.50;60.50
59881;DHT22;45751;51.380;10.326;2023-04-08T01:46:15;7.50;60.80
59881;DHT22;45751;51.380;10.326;2023-04-08T01:48:43;7.60;60.90
59881;DHT22;45751;51.380;10.326;2023-04-08T01:51:11;7.50;61.00
59881;DHT22;45751;51.380;10.326;2023-04-08T01:53:38;7.50;61.40
59881;DHT22;45751;51.380;10.326;2023-04-08T01:56:08;7.50;61.60
59881;DHT22;45751;51.380;10.326;2023-04-08T01:58:47;7.40;62.20
59881;DHT22;45751;51.380;10.326;2023-04-08T02:01:19;7.40;62.80
59881;DHT22;45751;51.380;10.326;2023-04-08T02:03:50;7.50;63.70
59881;DHT22;45751;51.380;10.326;2023-04-08T02:06:18;7.40;64.60
59881;DHT22;45751;51.380;10.326;2023-04-08T02:08:45;7.50;65.40
59881;DHT22;45751;51.380;10.326;2023-04-08T02:11:12;7.50;66.10
59881;DHT22;45751;51.380;10.326;2023-04-08T02:13:39;7.50;66.50
59881;DHT22;45751;51.380;10.326;2023-04-08T02:16:17;7.60;66.40
59881;DHT22;45751;51.380;10.326;2023-04-08T02:18:59;7.60;66.70
59881;DHT22;45751;51.380;10.326;2023-04-08T02:21:37;7.50;66.60
59881;DHT22;45751;51.380;10.326;2023-04-08T02:24:09;7.50;66.40
59881;DHT22;45751;51.380;10.326;2023-04-08T02:26:39;7.50;66.20
59881;DHT22;45751;51.380;10.326;2023-04-08T02:29:11;7.60;65.50
59881;DHT22;45751;51.380;10.326;2023-04-08T02:31:40;7.50;65.80
59881;DHT22;45751;51.380;10.326;2023-04-08T02:34:12;7.60;64.50
59881;DHT22;45751;51.380;10.326;2023-04-08T02:36:40;7.50;64.30
59881;DHT22;45751;51.380;10.326;2023-04-08T02:39:11;7.50;64.10
59881;DHT22;45751;51.380;10.326;2023-04-08T02:41:38;7.40;64.20
59881;DHT22;45751;51.380;10.326;2023-04-08T02:44:05;7.50;62.80
59881;DHT22;45751;51.380;10.326;2023-04-08T02:46:32;7.40;62.20
59881;DHT22;45751;51.380;10.326;2023-04-08T02:49:01;7.40;61.90
59881;DHT22;45751;51.380;10.326;2023-04-08T02:51:29;7.40;62.20
59881;DHT22;45751;51.380;10.326;2023-04-08T02:53:57;7.30;62.20
59881;DHT22;45751;51.380;10.326;2023-04-08T02:56:24;7.30;62.60
59881;DHT22;45751;51.380;10.326;2023-04-08T02:58:51;7.30;62.70
59881;DHT22;45751;51.380;10.326;2023-04-08T03:01:18;7.20;63.50
59881;DHT22;45751;51.380;10.326;2023-04-08T03:03:45;7.20;64.40
59881;DHT22;45751;51.380;10.326;2023-04-08T03:06:12;7.20;65.20
59881;DHT22;45751;51.380;10.326;2023-04-08T03:08:39;7.10;65.50
59881;DHT22;45751;51.380;10.326;2023-04-08T03:11:06;7.10;66.10
59881;DHT22;45751;51.380;10.326;2023-04-08T03:13:32;7.10;66.80
59881;DHT22;45751;51.380;10.326;2023-04-08T03:16:03;7.10;67.20
59881;DHT22;45751;51.380;10.326;2023-04-08T03:18:31;7.10;68.30
59881;DHT22;45751;51.380;10.326;2023-04-08T03:20:58;7.10;69.00
59881;DHT22;45751;51.380;10.326;2023-04-08T03:23:25;7.10;69.90
59881;DHT22;45751;51.380;10.326;2023-04-08T03:25:52;7.00;71.30
59881;DHT22;45751;51.380;10.326;2023-04-08T03:28:18;7.00;72.50
59881;DHT22;45751;51.380;10.326;2023-04-08T03:30:46;6.90;73.60
59881;DHT22;45751;51.380;10.326;2023-04-08T03:33:12;6.90;74.50
59881;DHT22;45751;51.380;10.326;2023-04-08T03:35:39;6.80;75.30
59881;DHT22;45751;51.380;10.326;2023-04-08T03:38:06;6.80;76.50
59881;DHT22;45751;51.380;10.326;2023-04-08T03:40:34;6.80;77.40
59881;DHT22;45751;51.380;10.326;2023-04-08T03:43:01;6.80;78.00
59881;DHT22;45751;51.380;10.326;2023-04-08T03:45:27;6.80;78.70
59881;DHT22;45751;51.380;10.326;2023-04-08T03:47:55;6.80;79.10
59881;DHT22;45751;51.380;10.326;2023-04-08T03:50:22;6.70;79.70
59881;DHT22;45751;51.380;10.326;2023-04-08T03:52:48;6.70;80.90
59881;DHT22;45751;51.380;10.326;2023-04-08T03:55:15;6.70;81.50
59881;DHT22;45751;51.380;10.326;2023-04-08T03:57:43;6.70;82.20
59881;DHT22;45751;51.380;10.326;2023-04-08T04:00:11;6.70;82.80
59881;DHT22;45751;51.380;10.326;2023-04-08T04:02:38;6.60;83.30
59881;DHT22;45751;51.380;10.326;2023-04-08T04:05:05;6.70;83.90
59881;DHT22;45751;51.380;10.326;2023-04-08T04:07:32;6.60;84.40
59881;DHT22;45751;51.380;10.326;2023-04-08T04:09:59;6.60;85.40
59881;DHT22;45751;51.380;10.326;2023-04-08T04:12:26;6.60;85.80
59881;DHT22;45751;51.380;10.326;2023-04-08T04:14:52;6.60;86.30
59881;DHT22;45751;51.380;10.326;2023-04-08T04:17:19;6.60;87.80
59881;DHT22;45751;51.380;10.326;2023-04-08T04:19:46;6.60;87.60
59881;DHT22;45751;51.380;10.326;2023-04-08T04:22:13;6.60;88.50
59881;DHT22;45751;51.380;10.326;2023-04-08T04:24:40;6.60;88.90
59881;DHT22;45751;51.380;10.326;2023-04-08T04:27:06;6.60;89.40
59881;DHT22;45751;51.380;10.326;2023-04-08T04:29:33;6.50;89.90
59881;DHT22;45751;51.380;10.326;2023-04-08T04:32:00;6.60;90.20
59881;DHT22;45751;51.380;10.326;2023-04-08T04:34:27;6.60;90.50
59881;DHT22;45751;51.380;10.326;2023-04-08T04:36:54;6.50;91.30
59881;DHT22;45751;51.380;10.326;2023-04-08T04:39:21;6.60;91.10
59881;DHT22;45751;51.380;10.326;2023-04-08T04:41:48;6.50;91.50
59881;DHT22;45751;51.380;10.326;2023-04-08T04:44:15;6.60;92.00
59881;DHT22;45751;51.380;10.326;2023-04-08T04:46:42;6.50;92.30
59881;DHT22;45751;51.380;10.326;2023-04-08T04:49:09;6.50;92.60
59881;DHT22;45751;51.380;10.326;2023-04-08T04:51:36;6.50;93.00
59881;DHT22;45751;51.380;10.326;2023-04-08T04:54:03;6.50;93.10
59881;DHT22;45751;51.380;10.326;2023-04-08T04:56:30;6.40;93.90
59881;DHT22;45751;51.380;10.326;2023-04-08T04:58:57;6.40;93.60
59881;DHT22;45751;51.380;10.326;2023-04-08T05:01:23;6.40;93.70
59881;DHT22;45751;51.380;10.326;2023-04-08T05:03:51;6.40;94.00
59881;DHT22;45751;51.380;10.326;2023-04-08T05:06:18;6.30;94.30
59881;DHT22;45751;51.380;10.326;2023-04-08T05:08:45;6.40;94.60
59881;DHT22;45751;51.380;10.326;2023-04-08T05:11:11;6.40;94.80
59881;DHT22;45751;51.380;10.326;2023-04-08T05:13:38;6.40;95.00
59881;DHT22;45751;51.380;10.326;2023-04-08T05:16:05;6.30;95.20
59881;DHT22;45751;51.380;10.326;2023-04-08T05:18:32;6.30;95.40
59881;DHT22;45751;51.380;10.326;2023-04-08T05:20:59;6.20;95.40
59881;DHT22;45751;51.380;10.326;2023-04-08T05:23:26;6.30;95.80
59881;DHT22;45751;51.380;10.326;2023-04-08T05:25:53;6.20;95.90
59881;DHT22;45751;51.380;10.326;2023-04-08T05:28:20;6.20;96.10
59881;DHT22;45751;51.380;10.326;2023-04-08T05:30:50;6.20;96.30
59881;DHT22;45751;51.380;10.326;2023-04-08T05:33:18;6.20;96.60
59881;DHT22;45751;51.380;10.326;2023-04-08T05:35:45;6.20;96.80
59881;DHT22;45751;51.380;10.326;2023-04-08T05:38:12;6.20;97.00
59881;DHT22;45751;51.380;10.326;2023-04-08T05:40:39;6.20;97.20
59881;DHT22;45751;51.380;10.326;2023-04-08T05:43:06;6.10;97.40
59881;DHT22;45751;51.380;10.326;2023-04-08T05:45:32;6.20;97.40
59881;DHT22;45751;51.380;10.326;2023-04-08T05:47:59;6.20;97.60
59881;DHT22;45751;51.380;10.326;2023-04-08T05:50:26;6.20;97.70
59881;DHT22;45751;51.380;10.326;2023-04-08T05:52:53;6.20;97.80
59881;DHT22;45751;51.380;10.326;2023-04-08T05:55:20;6.20;98.10
59881;DHT22;45751;51.380;10.326;2023-04-08T05:57:48;6.20;98.30
59881;DHT22;45751;51.380;10.326;2023-04-08T06:00:15;6.20;98.30
59881;DHT22;45751;51.380;10.326;2023-04-08T06:02:42;6.20;98.20
59881;DHT22;45751;51.380;10.326;2023-04-08T06:05:09;6.30;98.50
59881;DHT22;45751;51.380;10.326;2023-04-08T06:07:36;6.20;98.50
59881;DHT22;45751;51.380;10.326;2023-04-08T06:10:03;6.20;98.50
59881;DHT22;45751;51.380;10.326;2023-04-08T06:12:34;6.20;98.70
59881;DHT22;45751;51.380;10.326;2023-04-08T06:15:02;6.30;98.70
59881;DHT22;45751;51.380;10.326;2023-04-08T06:17:30;6.20;98.50
59881;DHT22;45751;51.380;10.326;2023-04-08T06:19:56;6.20;98.60
59881;DHT22;45751;51.380;10.326;2023-04-08T06:22:23;6.20;99.00
59881;DHT22;45751;51.380;10.326;2023-04-08T06:24:50;6.20;99.20
59881;DHT22;45751;51.380;10.326;2023-04-08T06:27:17;6.20;99.10
59881;DHT22;45751;51.380;10.326;2023-04-08T06:29:45;6.10;99.10
59881;DHT22;45751;51.380;10.326;2023-04-08T06:32:13;6.10;99.70
59881;DHT22;45751;51.380;10.326;2023-04-08T06:34:40;6.10;99.90
59881;DHT22;45751;51.380;10.326;2023-04-08T06:37:07;6.20;99.90
59881;DHT22;45751;51.380;10.326;2023-04-08T06:39:34;6.10;99.90
59881;DHT22;45751;51.380;10.326;2023-04-08T06:42:01;6.10;99.90
59881;DHT22;45751;51.380;10.326;2023-04-08T06:44:37;6.10;99.90
59881;DHT22;45751;51.380;10.326;2023-04-08T06:47:04;6.10;99.90
59881;DHT22;45751;51.380;10.326;2023-04-08T06:49:31;6.10;99.90
59881;DHT22;45751;51.380;10.326;2023-04-08T06:51:58;6.20;99.90
59881;DHT22;45751;51.380;10.326;2023-04-08T06:54:25;6.20;99.90
59881;DHT22;45751;51.380;10.326;2023-04-08T06:56:52;6.20;99.90
59881;DHT22;45751;51.380;10.326;2023-04-08T06:59:19;6.20;99.90
59881;DHT22;45751;51.380;10.326;2023-04-08T07:01:46;6.20;99.90
59881;DHT22;45751;51.380;10.326;2023-04-08T07:04:13;6.30;99.90
59881;DHT22;45751;51.380;10.326;2023-04-08T07:06:40;6.30;99.90
59881;DHT22;45751;51.380;10.326;2023-04-08T07:09:07;6.30;99.90
59881;DHT22;45751;51.380;10.326;2023-04-08T07:11:34;6.30;99.90
59881;DHT22;45751;51.380;10.326;2023-04-08T07:14:01;6.30;99.90
59881;DHT22;45751;51.380;10.326;2023-04-08T07:16:28;6.30;99.90
59881;DHT22;45751;51.380;10.326;2023-04-08T07:18:55;6.30;99.90
59881;DHT22;45751;51.380;10.326;2023-04-08T07:21:22;6.30;99.90
59881;DHT22;45751;51.380;10.326;2023-04-08T07:23:49;6.30;99.90
59881;DHT22;45751;51.380;10.326;2023-04-08T07:26:16;6.20;99.90
59881;DHT22;45751;51.380;10.326;2023-04-08T07:28:43;6.30;99.90
59881;DHT22;45751;51.380;10.326;2023-04-08T07:31:15;6.40;99.90
59881;DHT22;45751;51.380;10.326;2023-04-08T07:33:44;6.30;99.90
59881;DHT22;45751;51.380;10.326;2023-04-08T07:36:12;6.30;99.90
59881;DHT22;45751;51.380;10.326;2023-04-08T07:38:44;6.40;99.90
59881;DHT22;45751;51.380;10.326;2023-04-08T07:41:11;6.40;99.90
59881;DHT22;45751;51.380;10.326;2023-04-08T07:43:38;6.30;99.90
59881;DHT22;45751;51.380;10.326;2023-04-08T07:46:05;6.40;99.90
59881;DHT22;45751;51.380;10.326;2023-04-08T07:48:33;6.50;99.90
59881;DHT22;45751;51.380;10.326;2023-04-08T07:51:08;6.50;99.90
59881;DHT22;45751;51.380;10.326;2023-04-08T07:53:38;6.60;99.90
59881;DHT22;45751;51.380;10.326;2023-04-08T07:56:15;6.60;99.90
59881;DHT22;45751;51.380;10.326;2023-04-08T07:58:44;6.70;99.90
59881;DHT22;45751;51.380;10.326;2023-04-08T08:01:19;6.70;99.90
59881;DHT22;45751;51.380;10.326;2023-04-08T08:03:48;6.70;99.90
59881;DHT22;45751;51.380;10.326;2023-04-08T08:06:16;6.70;99.90
59881;DHT22;45751;51.380;10.326;2023-04-08T08:08:43;6.80;99.90
59881;DHT22;45751;51.380;10.326;2023-04-08T08:11:11;6.80;99.90
59881;DHT22;45751;51.380;10.326;2023-04-08T08:13:38;6.90;99.90
59881;DHT22;45751;51.380;10.326;2023-04-08T08:16:05;6.90;98.90
59881;DHT22;45751;51.380;10.326;2023-04-08T08:18:35;6.90;98.70
59881;DHT22;45751;51.380;10.326;2023-04-08T08:21:02;6.90;98.50
59881;DHT22;45751;51.380;10.326;2023-04-08T08:23:30;7.00;98.50
59881;DHT22;45751;51.380;10.326;2023-04-08T08:26:01;7.00;98.20
59881;DHT22;45751;51.380;10.326;2023-04-08T08:28:28;7.10;97.80
59881;DHT22;45751;51.380;10.326;2023-04-08T08:30:55;7.10;97.40
59881;DHT22;45751;51.380;10.326;2023-04-08T08:33:22;7.10;97.70
59881;DHT22;45751;51.380;10.326;2023-04-08T08:35:49;7.10;97.60
59881;DHT22;45751;51.380;10.326;2023-04-08T08:38:17;7.10;97.30
59881;DHT22;45751;51.380;10.326;2023-04-08T08:40:44;7.10;97.20
59881;DHT22;45751;51.380;10.326;2023-04-08T08:43:11;7.10;97.20
59881;DHT22;45751;51.380;10.326;2023-04-08T08:45:40;7.10;97.10
59881;DHT22;45751;51.380;10.326;2023-04-08T08:48:08;7.20;97.10
59881;DHT22;45751;51.380;10.326;2023-04-08T08:50:35;7.10;97.30
59881;DHT22;45751;51.380;10.326;2023-04-08T08:53:02;7.10;97.50
59881;DHT22;45751;51.380;10.326;2023-04-08T08:55:31;7.10;97.60
59881;DHT22;45751;51.380;10.326;2023-04-08T08:58:19;7.10;97.60
59881;DHT22;45751;51.380;10.326;2023-04-08T09:00:46;7.20;97.70
59881;DHT22;45751;51.380;10.326;2023-04-08T09:03:20;7.20;97.80
59881;DHT22;45751;51.380;10.326;2023-04-08T09:05:56;7.20;97.50
59881;DHT22;45751;51.380;10.326;2023-04-08T09:08:36;7.20;97.50
59881;DHT22;45751;51.380;10.326;2023-04-08T09:13:40;7.30;97.50
59881;DHT22;45751;51.380;10.326;2023-04-08T09:16:12;7.30;97.30
59881;DHT22;45751;51.380;10.326;2023-04-08T09:18:40;7.20;97.30
59881;DHT22;45751;51.380;10.326;2023-04-08T09:21:10;7.20;97.50
59881;DHT22;45751;51.380;10.326;2023-04-08T09:23:39;7.30;97.40
59881;DHT22;45751;51.380;10.326;2023-04-08T09:26:17;7.20;97.40
59881;DHT22;45751;51.380;10.326;2023-04-08T09:29:04;7.30;97.30
59881;DHT22;45751;51.380;10.326;2023-04-08T09:32:00;7.30;97.30
59881;DHT22;45751;51.380;10.326;2023-04-08T09:34:28;7.30;97.30
59881;DHT22;45751;51.380;10.326;2023-04-08T09:36:58;7.30;97.30
59881;DHT22;45751;51.380;10.326;2023-04-08T09:39:24;7.30;97.10
59881;DHT22;45751;51.380;10.326;2023-04-08T09:41:52;7.30;97.10
59881;DHT22;45751;51.380;10.326;2023-04-08T09:44:25;7.30;97.20
59881;DHT22;45751;51.380;10.326;2023-04-08T09:47:00;7.30;97.00
59881;DHT22;45751;51.380;10.326;2023-04-08T09:49:42;7.30;97.10
59881;DHT22;45751;51.380;10.326;2023-04-08T09:52:23;7.30;97.30
59881;DHT22;45751;51.380;10.326;2023-04-08T09:54:58;7.40;97.60
59881;DHT22;45751;51.380;10.326;2023-04-08T09:57:32;7.30;97.60
59881;DHT22;45751;51.380;10.326;2023-04-08T10:00:16;7.30;97.80
59881;DHT22;45751;51.380;10.326;2023-04-08T10:05:20;7.30;97.80
59881;DHT22;45751;51.380;10.326;2023-04-08T10:07:47;7.40;97.90
59881;DHT22;45751;51.380;10.326;2023-04-08T10:10:16;7.40;97.80
59881;DHT22;45751;51.380;10.326;2023-04-08T10:12:44;7.40;97.90
59881;DHT22;45751;51.380;10.326;2023-04-08T10:20:47;7.70;97.30
59881;DHT22;45751;51.380;10.326;2023-04-08T10:23:16;7.70;97.60
59881;DHT22;45751;51.380;10.326;2023-04-08T10:25:44;7.80;96.70
59881;DHT22;45751;51.380;10.326;2023-04-08T10:30:43;7.80;97.00
59881;DHT22;45751;51.380;10.326;2023-04-08T10:35:53;7.90;96.90
59881;DHT22;45751;51.380;10.326;2023-04-08T10:38:21;8.00;96.60
59881;DHT22;45751;51.380;10.326;2023-04-08T10:40:48;8.00;96.40
59881;DHT22;45751;51.380;10.326;2023-04-08T10:43:17;8.00;96.20
59881;DHT22;45751;51.380;10.326;2023-04-08T10:45:44;8.10;96.50
59881;DHT22;45751;51.380;10.326;2023-04-08T10:48:19;8.10;96.30
59881;DHT22;45751;51.380;10.326;2023-04-08T10:51:01;8.20;96.10
59881;DHT22;45751;51.380;10.326;2023-04-08T10:53:31;8.20;95.70
59881;DHT22;45751;51.380;10.326;2023-04-08T10:56:08;8.20;95.80
59881;DHT22;45751;51.380;10.326;2023-04-08T10:58:49;8.30;96.20
59881;DHT22;45751;51.380;10.326;2023-04-08T11:01:17;8.40;96.10
59881;DHT22;45751;51.380;10.326;2023-04-08T11:03:44;8.40;95.70
59881;DHT22;45751;51.380;10.326;2023-04-08T11:06:12;8.40;95.60
59881;DHT22;45751;51.380;10.326;2023-04-08T11:08:39;8.50;95.50
59881;DHT22;45751;51.380;10.326;2023-04-08T11:11:07;8.50;95.60
59881;DHT22;45751;51.380;10.326;2023-04-08T11:13:36;8.50;95.70
59881;DHT22;45751;51.380;10.326;2023-04-08T11:16:03;8.60;95.30
59881;DHT22;45751;51.380;10.326;2023-04-08T11:18:44;8.60;95.20
59881;DHT22;45751;51.380;10.326;2023-04-08T11:21:11;8.60;94.80
59881;DHT22;45751;51.380;10.326;2023-04-08T11:23:38;8.70;95.00
59881;DHT22;45751;51.380;10.326;2023-04-08T11:26:07;8.70;94.80
59881;DHT22;45751;51.380;10.326;2023-04-08T11:28:34;8.80;95.20
59881;DHT22;45751;51.380;10.326;2023-04-08T11:31:01;8.80;95.10
59881;DHT22;45751;51.380;10.326;2023-04-08T11:33:30;8.90;94.20
59881;DHT22;45751;51.380;10.326;2023-04-08T11:36:00;9.00;94.10
59881;DHT22;45751;51.380;10.326;2023-04-08T11:38:30;9.00;93.80
59881;DHT22;45751;51.380;10.326;2023-04-08T11:40:57;9.00;94.00
59881;DHT22;45751;51.380;10.326;2023-04-08T11:43:25;9.10;93.60
59881;DHT22;45751;51.380;10.326;2023-04-08T11:45:52;9.10;93.20
59881;DHT22;45751;51.380;10.326;2023-04-08T11:48:19;9.20;92.80
59881;DHT22;45751;51.380;10.326;2023-04-08T11:50:46;9.20;93.00
59881;DHT22;45751;51.380;10.326;2023-04-08T11:55:43;9.30;92.40
59881;DHT22;45751;51.380;10.326;2023-04-08T11:58:10;9.30;92.70
59881;DHT22;45751;51.380;10.326;2023-04-08T12:00:37;9.30;92.30
59881;DHT22;45751;51.380;10.326;2023-04-08T12:03:04;9.40;91.80
59881;DHT22;45751;51.380;10.326;2023-04-08T12:05:31;9.40;91.60
59881;DHT22;45751;51.380;10.326;2023-04-08T12:07:58;9.40;91.50
59881;DHT22;45751;51.380;10.326;2023-04-08T12:10:25;9.40;91.80
59881;DHT22;45751;51.380;10.326;2023-04-08T12:12:52;9.40;91.70
59881;DHT22;45751;51.380;10.326;2023-04-08T12:15:19;9.40;91.70
59881;DHT22;45751;51.380;10.326;2023-04-08T12:17:46;9.40;92.00
59881;DHT22;45751;51.380;10.326;2023-04-08T12:20:13;9.50;91.90
59881;DHT22;45751;51.380;10.326;2023-04-08T12:22:41;9.50;91.70
59881;DHT22;45751;51.380;10.326;2023-04-08T12:25:08;9.60;91.90
59881;DHT22;45751;51.380;10.326;2023-04-08T12:27:35;9.60;91.80
59881;DHT22;45751;51.380;10.326;2023-04-08T12:30:02;9.60;91.60
59881;DHT22;45751;51.380;10.326;2023-04-08T12:32:29;9.60;91.60
59881;DHT22;45751;51.380;10.326;2023-04-08T12:34:57;9.60;91.30
59881;DHT22;45751;51.380;10.326;2023-04-08T12:37:24;9.60;91.00
59881;DHT22;45751;51.380;10.326;2023-04-08T12:39:50;9.40;91.00
59881;DHT22;45751;51.380;10.326;2023-04-08T12:42:18;9.40;91.40
59881;DHT22;45751;51.380;10.326;2023-04-08T12:44:44;9.30;91.60
59881;DHT22;45751;51.380;10.326;2023-04-08T12:47:11;9.30;92.00
59881;DHT22;45751;51.380;10.326;2023-04-08T12:49:38;9.30;92.00
59881;DHT22;45751;51.380;10.326;2023-04-08T12:52:08;9.30;92.10
59881;DHT22;45751;51.380;10.326;2023-04-08T12:54:35;9.20;92.50
59881;DHT22;45751;51.380;10.326;2023-04-08T12:57:02;9.30;92.60
59881;DHT22;45751;51.380;10.326;2023-04-08T12:59:30;9.30;92.80
59881;DHT22;45751;51.380;10.326;2023-04-08T13:01:59;9.30;93.40
59881;DHT22;45751;51.380;10.326;2023-04-08T13:04:26;9.30;92.80
59881;DHT22;45751;51.380;10.326;2023-04-08T13:06:53;9.40;92.80
59881;DHT22;45751;51.380;10.326;2023-04-08T13:09:21;9.40;92.70
59881;DHT22;45751;51.380;10.326;2023-04-08T13:11:48;9.40;92.90
59881;DHT22;45751;51.380;10.326;2023-04-08T13:14:15;9.40;92.60
59881;DHT22;45751;51.380;10.326;2023-04-08T13:16:42;9.50;91.70
59881;DHT22;45751;51.380;10.326;2023-04-08T13:19:09;9.50;91.20
59881;DHT22;45751;51.380;10.326;2023-04-08T13:21:36;9.60;91.40
59881;DHT22;45751;51.380;10.326;2023-04-08T13:24:03;9.70;91.40
59881;DHT22;45751;51.380;10.326;2023-04-08T13:26:29;9.70;91.40
59881;DHT22;45751;51.380;10.326;2023-04-08T13:28:56;9.80;91.30
59881;DHT22;45751;51.380;10.326;2023-04-08T13:31:24;9.90;90.90
59881;DHT22;45751;51.380;10.326;2023-04-08T13:33:51;10.00;90.60
59881;DHT22;45751;51.380;10.326;2023-04-08T13:36:23;10.10;90.00
59881;DHT22;45751;51.380;10.326;2023-04-08T13:38:49;10.20;89.00
59881;DHT22;45751;51.380;10.326;2023-04-08T13:41:19;10.30;88.00
59881;DHT22;45751;51.380;10.326;2023-04-08T13:43:46;10.50;86.70
59881;DHT22;45751;51.380;10.326;2023-04-08T13:46:14;10.50;86.10
59881;DHT22;45751;51.380;10.326;2023-04-08T13:48:41;10.60;84.80
59881;DHT22;45751;51.380;10.326;2023-04-08T13:51:08;10.60;84.00
59881;DHT22;45751;51.380;10.326;2023-04-08T13:53:35;10.70;82.70
59881;DHT22;45751;51.380;10.326;2023-04-08T13:56:03;10.70;81.40
59881;DHT22;45751;51.380;10.326;2023-04-08T13:58:29;10.80;80.30
59881;DHT22;45751;51.380;10.326;2023-04-08T14:00:57;10.90;79.50
59881;DHT22;45751;51.380;10.326;2023-04-08T14:03:23;10.80;78.40
59881;DHT22;45751;51.380;10.326;2023-04-08T14:05:50;10.80;77.70
59881;DHT22;45751;51.380;10.326;2023-04-08T14:08:17;10.90;78.00
59881;DHT22;45751;51.380;10.326;2023-04-08T14:10:51;10.90;77.00
59881;DHT22;45751;51.380;10.326;2023-04-08T14:13:18;11.00;77.20
59881;DHT22;45751;51.380;10.326;2023-04-08T14:15:45;11.00;77.30
59881;DHT22;45751;51.380;10.326;2023-04-08T14:18:12;11.10;78.10
59881;DHT22;45751;51.380;10.326;2023-04-08T14:20:39;11.20;77.40
59881;DHT22;45751;51.380;10.326;2023-04-08T14:23:06;11.30;76.20
59881;DHT22;45751;51.380;10.326;2023-04-08T14:25:33;11.30;76.10
59881;DHT22;45751;51.380;10.326;2023-04-08T14:28:00;11.40;77.00
59881;DHT22;45751;51.380;10.326;2023-04-08T14:30:27;11.50;75.60
59881;DHT22;45751;51.380;10.326;2023-04-08T14:32:54;11.70;73.80
59881;DHT22;45751;51.380;10.326;2023-04-08T14:35:22;11.80;73.60
59881;DHT22;45751;51.380;10.326;2023-04-08T14:37:49;11.90;73.20
59881;DHT22;45751;51.380;10.326;2023-04-08T14:40:15;12.10;72.20
59881;DHT22;45751;51.380;10.326;2023-04-08T14:42:42;12.20;70.90
59881;DHT22;45751;51.380;10.326;2023-04-08T14:45:11;12.30;71.20
59881;DHT22;45751;51.380;10.326;2023-04-08T14:47:38;12.50;70.80
59881;DHT22;45751;51.380;10.326;2023-04-08T14:50:06;12.60;70.10
59881;DHT22;45751;51.380;10.326;2023-04-08T14:52:33;13.00;69.50
59881;DHT22;45751;51.380;10.326;2023-04-08T14:55:00;12.90;68.60
59881;DHT22;45751;51.380;10.326;2023-04-08T14:57:27;13.00;67.00
59881;DHT22;45751;51.380;10.326;2023-04-08T14:59:53;13.10;66.10
59881;DHT22;45751;51.380;10.326;2023-04-08T15:02:20;13.10;64.90
59881;DHT22;45751;51.380;10.326;2023-04-08T15:04:47;13.00;64.40
59881;DHT22;45751;51.380;10.326;2023-04-08T15:07:14;12.90;64.10
59881;DHT22;45751;51.380;10.326;2023-04-08T15:09:41;12.80;64.20
59881;DHT22;45751;51.380;10.326;2023-04-08T15:12:08;12.60;64.00
59881;DHT22;45751;51.380;10.326;2023-04-08T15:14:35;12.40;63.90
59881;DHT22;45751;51.380;10.326;2023-04-08T15:17:01;12.30;64.80
59881;DHT22;45751;51.380;10.326;2023-04-08T15:19:29;12.00;65.30
59881;DHT22;45751;51.380;10.326;2023-04-08T15:21:55;11.80;65.90
59881;DHT22;45751;51.380;10.326;2023-04-08T15:24:22;11.60;66.50
59881;DHT22;45751;51.380;10.326;2023-04-08T15:26:49;11.50;67.10
59881;DHT22;45751;51.380;10.326;2023-04-08T15:29:16;11.40;67.70
59881;DHT22;45751;51.380;10.326;2023-04-08T15:31:43;11.20;68.40
59881;DHT22;45751;51.380;10.326;2023-04-08T15:34:10;11.10;69.20
59881;DHT22;45751;51.380;10.326;2023-04-08T15:36:36;11.10;70.30
59881;DHT22;45751;51.380;10.326;2023-04-08T15:39:04;10.90;70.80
59881;DHT22;45751;51.380;10.326;2023-04-08T15:41:30;10.80;71.90
59881;DHT22;45751;51.380;10.326;2023-04-08T15:43:58;10.70;72.40
59881;DHT22;45751;51.380;10.326;2023-04-08T15:46:25;10.70;72.90
59881;DHT22;45751;51.380;10.326;2023-04-08T15:48:52;10.60;73.30
59881;DHT22;45751;51.380;10.326;2023-04-08T15:51:19;10.60;74.00
59881;DHT22;45751;51.380;10.326;2023-04-08T15:53:46;10.40;74.50
59881;DHT22;45751;51.380;10.326;2023-04-08T15:56:17;10.40;75.00
59881;DHT22;45751;51.380;10.326;2023-04-08T15:58:44;10.30;75.80